Portada
METAR-TAF:

METAR-TAF

Aeroports :

Elat, Israel

latitud: 29-43-25N, longitud: 35-00-41E, altitud: 88 m

Observació

L'informe es va fer fa 9 hores i 4 minuts, a les 18:50 UTC
Vent 12 kt del Nord/Nord-Oest
Temperatura 20°C
Humitat 53%
Pressió 1015 hPa
Visibilitat 10 km o més
sense núvols per sota de 1500 mi sense presència de cumulonimbus.

METAR: LLER 281850Z 33012KT CAVOK 20/10 Q1015

Hora: 06:54 (03:54 UTC)

Pronòstic

L'informe es va fer fa 4 hores i 54 minuts, a les 23:00 UTC
Pronòstic vàlid del 29 a les 00 UTC al 29 a les 24 UTC
Vent 12 kt del Nord
Visibilitat 10 km o més
sense núvols per sota de 1500 mi sense presència de cumulonimbus.
Evolucionant progressivament
l' 29 a les 18 UTC al 29 a les 20 UTC
Vent 6 kt del Oest/Nord-Oest

TAF: LLER 282300Z 2900/2924 36012KT CAVOK BECMG 2918/2920 30006KT TX26/2914Z TN15/2904Z

Observacions i pronòstics meteorològics de més de 4000 aeroports (METAR i TAF).

Les estacions disponibles són els punts grocs i vermells al mapa.

Posi el ratolí al punt desitjat per veure el nom de l'estació.

Feu clic per veure les observacions i els pronòstics meteorològics.

Per canviar el mapa: feu clic els botons verds amb una creu de color negre per apropar; al botó verd amb un guió per allunyar la imatge; o en les fletxes verdes per a mapes adjacents.


METAR-TAF: